Time;durP1;ratioP1;P1;durP2;ratioP2;P2;SDS_P1;SDS_P2;PMS_P1;PMS_P2;Temp;Humidity;BMP_temperature;BMP_pressure;BME280_temperature;BME280_humidity;BME280_pressure;Samples;Min_cycle;Max_cycle;Signal;HPM_P1;HPM_P2
2023/10/22 00:00:48;;;;;;;25.98;17.15;;;;;;;-145.63;55.36;39335.19;5042896;28;20037;-67
2023/10/22 00:03:14;;;;;;;24.95;18.52;;;;;;;-145.63;55.36;39341.06;5042703;28;20075;-67
2023/10/22 00:05:40;;;;;;;20.38;15.77;;;;;;;-145.63;55.36;39358.66;5043722;28;20057;-67
2023/10/22 00:08:06;;;;;;;24.27;17.27;;;;;;;-145.63;55.52;39337.16;5046225;28;20044;-68
2023/10/22 00:10:32;;;;;;;22.10;17.50;;;;;;;-145.63;55.49;39325.41;5045621;28;20233;-68
2023/10/22 00:12:57;;;;;;;26.70;18.45;;;;;;;-145.63;55.50;39343.03;5046553;28;20036;-68
2023/10/22 00:15:27;;;;;;;22.92;17.92;;;;;;;-145.63;55.54;39323.47;5046089;28;20341;-67
2023/10/22 00:17:53;;;;;;;27.63;17.80;;;;;;;-145.63;55.83;39364.53;5046696;28;20076;-68
2023/10/22 00:20:19;;;;;;;24.95;17.98;;;;;;;-145.63;55.52;39356.72;5045888;28;20089;-69
2023/10/22 00:22:45;;;;;;;23.60;18.33;;;;;;;-145.63;56.03;39327.38;5046291;28;20057;-68
2023/10/22 00:25:11;;;;;;;22.50;17.90;;;;;;;-145.63;55.80;39346.94;5046280;28;20041;-69
2023/10/22 00:27:37;;;;;;;23.40;18.55;;;;;;;-145.63;55.54;39339.13;5045474;28;20030;-68
2023/10/22 00:30:03;;;;;;;24.38;19.90;;;;;;;-145.63;55.69;39364.53;5046046;28;20033;-67
2023/10/22 00:32:35;;;;;;;25.23;18.85;;;;;;;-145.63;56.18;39348.88;5046028;28;20294;-69
2023/10/22 00:35:01;;;;;;;23.65;19.15;;;;;;;-145.63;55.75;39339.13;5044725;28;20033;-68
2023/10/22 00:37:31;;;;;;;24.15;20.20;;;;;;;-145.63;55.46;39313.69;5045949;28;20072;-70
2023/10/22 00:39:57;;;;;;;30.00;20.27;;;;;;;-145.63;55.57;39350.84;5046197;28;20226;-69
2023/10/22 00:42:24;;;;;;;30.58;20.30;;;;;;;-145.63;55.60;39382.13;5045953;28;20048;-70
2023/10/22 00:44:49;;;;;;;28.20;20.13;;;;;;;-145.63;55.78;39405.59;5045922;28;20026;-69
2023/10/22 00:47:15;;;;;;;27.02;20.52;;;;;;;-145.63;55.40;39339.13;5045873;28;20033;-69
2023/10/22 00:49:43;;;;;;;23.92;20.35;;;;;;;-145.63;55.63;39346.94;5045569;28;20033;-69
2023/10/22 00:52:09;;;;;;;29.20;20.15;;;;;;;-145.63;55.78;39395.84;5044495;28;20199;-69
2023/10/22 00:54:35;;;;;;;35.17;25.65;;;;;;;-145.63;55.35;39249.16;5045648;28;20091;-68
2023/10/22 00:57:02;;;;;;;29.70;24.05;;;;;;;-145.63;55.40;39362.59;5045727;28;20449;-68
2023/10/22 00:59:28;;;;;;;34.83;27.17;;;;;;;-145.63;55.38;39364.53;5045433;28;20055;-68
2023/10/22 01:01:53;;;;;;;35.42;25.95;;;;;;;-145.63;55.80;39356.72;5045704;28;20030;-68
2023/10/22 01:04:19;;;;;;;36.78;27.13;;;;;;;-145.63;55.59;39325.41;5045672;28;20317;-68
2023/10/22 01:06:45;;;;;;;33.53;25.40;;;;;;;-145.63;56.31;39329.34;5044604;28;20032;-67
2023/10/22 01:09:11;;;;;;;34.67;26.75;;;;;;;-145.63;56.08;39346.94;5045489;28;20056;-68
2023/10/22 01:11:58;;;;;;;38.95;26.42;;;;;;;-145.63;55.95;39368.44;5044981;28;20030;-67
2023/10/22 01:14:24;;;;;;;36.05;26.92;;;;;;;-145.63;56.29;39350.84;5041625;28;20317;-68
2023/10/22 01:16:50;;;;;;;36.83;26.70;;;;;;;-145.63;56.00;39344.97;5043940;28;20037;-69
2023/10/22 01:19:15;;;;;;;36.40;27.45;;;;;;;-145.63;56.11;39327.38;5044384;28;20256;-69
2023/10/22 01:21:41;;;;;;;34.50;26.85;;;;;;;-145.63;55.89;39348.88;5044622;28;20029;-68
2023/10/22 01:24:07;;;;;;;36.42;25.92;;;;;;;-145.63;55.99;39352.81;5045102;28;20021;-69
2023/10/22 01:26:40;;;;;;;35.47;25.73;;;;;;;-145.63;55.72;39391.91;5045072;28;20033;-70
2023/10/22 01:29:05;;;;;;;39.45;25.48;;;;;;;-145.63;55.41;39172.88;5045022;28;20025;-69
2023/10/22 01:31:31;;;;;;;38.05;26.05;;;;;;;-145.63;55.95;39376.28;5044702;28;20036;-69
2023/10/22 01:33:56;;;;;;;37.80;27.42;;;;;;;-145.63;55.77;39343.03;5044870;28;20033;-68
2023/10/22 01:36:22;;;;;;;40.97;26.58;;;;;;;-145.63;56.01;39364.53;5044962;28;20033;-68
2023/10/22 01:38:48;;;;;;;36.22;25.75;;;;;;;-145.63;56.05;39341.06;5044848;28;20021;-69
2023/10/22 01:41:13;;;;;;;31.48;23.88;;;;;;;-145.63;56.03;39335.19;5043667;28;20029;-69
2023/10/22 01:43:39;;;;;;;32.08;25.35;;;;;;;-145.63;56.19;39348.88;5044542;28;20199;-69
2023/10/22 01:46:04;;;;;;;35.80;25.00;;;;;;;-145.63;56.11;39370.41;5044786;28;20037;-69
2023/10/22 01:48:30;;;;;;;33.60;26.42;;;;;;;-145.63;55.56;39370.41;5044769;28;20029;-68
2023/10/22 01:50:56;;;;;;;33.85;25.48;;;;;;;-145.63;55.65;39356.72;5044737;28;20032;-69
2023/10/22 01:53:21;;;;;;;34.08;25.20;;;;;;;-145.63;55.51;39378.22;5043297;28;20226;-69
2023/10/22 01:55:47;;;;;;;35.35;27.25;;;;;;;-145.63;55.55;39352.81;5044366;28;20345;-69
2023/10/22 01:58:13;;;;;;;40.25;28.67;;;;;;;-145.63;55.26;39358.66;5043246;28;20017;-68
2023/10/22 02:00:38;;;;;;;33.75;27.35;;;;;;;-145.63;55.55;39374.31;5044473;28;20093;-69
2023/10/22 02:03:04;;;;;;;37.83;25.98;;;;;;;-145.63;55.26;39368.44;5043377;28;20025;-69
2023/10/22 02:05:34;;;;;;;35.45;25.63;;;;;;;-145.63;56.03;39356.72;5044193;28;20404;-68
2023/10/22 02:08:00;;;;;;;36.25;27.20;;;;;;;-145.63;56.02;39129.84;5042838;28;20179;-68
2023/10/22 02:10:26;;;;;;;33.92;26.00;;;;;;;-145.63;56.26;39348.88;5044231;28;20088;-69
2023/10/22 02:12:51;;;;;;;37.38;26.63;;;;;;;-145.63;56.59;39335.19;5044253;28;20025;-68
2023/10/22 02:15:17;;;;;;;32.15;25.48;;;;;;;-145.63;56.63;39364.53;5044288;28;20078;-69
2023/10/22 02:17:43;;;;;;;36.47;25.83;;;;;;;-145.63;56.30;39313.69;5042831;28;20037;-70
2023/10/22 02:20:10;;;;;;;34.67;26.27;;;;;;;-145.63;56.30;39354.75;5043268;28;20027;-69
2023/10/22 02:22:39;;;;;;;32.80;23.42;;;;;;;-145.63;56.76;39348.88;5043802;28;20041;-67
2023/10/22 02:25:06;;;;;;;29.95;21.23;;;;;;;-145.63;56.10;39348.88;5044148;28;20233;-67
2023/10/22 02:27:32;;;;;;;34.72;22.27;;;;;;;-145.63;55.84;39348.88;5043800;28;20029;-67
2023/10/22 02:29:57;;;;;;;29.98;19.90;;;;;;;-145.63;55.57;39337.16;5043568;28;20034;-69
2023/10/22 02:32:23;;;;;;;27.25;20.13;;;;;;;-145.63;55.41;39341.06;5043801;28;20036;-67
2023/10/22 02:34:49;;;;;;;26.15;20.92;;;;;;;-145.63;55.81;39350.84;5043800;28;20029;-67
2023/10/22 02:37:15;;;;;;;27.05;21.77;;;;;;;-145.63;55.91;39344.97;5043538;28;20025;-66
2023/10/22 02:39:41;;;;;;;23.83;18.95;;;;;;;-145.63;55.98;39358.66;5043679;28;20025;-67
2023/10/22 02:42:07;;;;;;;30.58;22.08;;;;;;;-145.63;56.32;39315.66;5043614;28;20049;-68
2023/10/22 02:44:33;;;;;;;27.52;20.40;;;;;;;-145.63;55.70;39378.22;5042438;28;20025;-71
2023/10/22 02:46:59;;;;;;;29.20;20.35;;;;;;;-145.63;55.69;39341.06;5043583;28;20025;-70
2023/10/22 02:49:25;;;;;;;24.67;18.65;;;;;;;-145.63;55.41;39368.44;5043466;28;20049;-69
2023/10/22 02:51:52;;;;;;;22.25;17.25;;;;;;;-145.63;55.14;39337.16;5043371;28;20067;-68
2023/10/22 02:54:18;;;;;;;22.63;17.20;;;;;;;-145.63;54.67;39344.97;5043731;28;20180;-69
2023/10/22 02:56:44;;;;;;;21.90;17.50;;;;;;;-145.63;54.75;39337.16;5043385;28;20317;-69
2023/10/22 02:59:09;;;;;;;24.17;17.75;;;;;;;-145.63;54.28;39341.06;5043537;28;20192;-70
2023/10/22 03:01:36;;;;;;;25.05;18.27;;;;;;;-145.63;54.59;39354.75;5043203;28;20082;-70
2023/10/22 03:04:01;;;;;;;25.88;17.20;;;;;;;-145.63;54.24;39331.28;5043485;28;20025;-69
2023/10/22 03:06:27;;;;;;;23.20;16.23;;;;;;;-145.63;54.40;39380.19;5043429;28;20028;-69
2023/10/22 03:08:53;;;;;;;23.20;18.02;;;;;;;-145.63;54.07;39382.13;5043053;28;20025;-69
2023/10/22 03:11:19;;;;;;;22.50;17.27;;;;;;;-145.63;54.19;39344.97;5043433;28;20033;-69
2023/10/22 03:13:46;;;;;;;23.85;17.50;;;;;;;-145.63;54.06;39335.19;5042749;28;20092;-69
2023/10/22 03:16:15;;;;;;;21.75;18.05;;;;;;;-145.63;54.23;39329.34;5043353;28;20300;-68
2023/10/22 03:18:44;;;;;;;22.20;17.30;;;;;;;-145.63;54.03;39380.19;5043029;28;20041;-69
2023/10/22 03:21:20;;;;;;;17.85;14.80;;;;;;;-145.63;53.91;39333.25;5042619;28;20022;-67
2023/10/22 03:23:47;;;;;;;17.52;14.40;;;;;;;-145.63;53.46;39374.31;5042829;28;20041;-69
2023/10/22 03:26:16;;;;;;;20.42;14.60;;;;;;;-145.63;54.21;39360.63;5042535;28;20022;-69
2023/10/22 03:28:43;;;;;;;21.85;14.88;;;;;;;-145.63;54.01;39356.72;5042729;28;20079;-69
2023/10/22 03:31:09;;;;;;;20.58;14.88;;;;;;;-145.63;53.89;39344.97;5043115;28;20033;-70
2023/10/22 03:33:34;;;;;;;20.23;14.77;;;;;;;-145.63;53.76;39354.75;5043143;28;20022;-69
2023/10/22 03:36:01;;;;;;;18.27;13.93;;;;;;;-145.63;53.90;39348.88;5043220;28;20075;-68
2023/10/22 03:38:27;;;;;;;19.17;13.90;;;;;;;-145.63;53.36;39344.97;5042742;28;20056;-69
2023/10/22 03:40:58;;;;;;;18.48;13.77;;;;;;;-145.63;53.63;39360.63;5044841;28;20034;-69
2023/10/22 03:43:25;;;;;;;19.13;13.50;;;;;;;-145.63;53.22;39360.63;5047054;28;20029;-69
2023/10/22 03:45:51;;;;;;;16.45;11.23;;;;;;;-145.63;53.17;39325.41;5047172;28;20104;-69
2023/10/22 03:48:16;;;;;;;13.98;11.20;;;;;;;-145.63;52.99;39368.44;5046894;28;20029;-68
2023/10/22 03:50:45;;;;;;;11.98;10.48;;;;;;;-145.63;53.12;39356.72;5046902;28;20033;-68
2023/10/22 03:53:11;;;;;;;15.02;10.85;;;;;;;-145.63;53.20;39343.03;5047039;28;20041;-67
2023/10/22 03:55:37;;;;;;;13.73;11.93;;;;;;;-145.63;53.42;39368.44;5045272;28;20175;-67
2023/10/22 03:58:02;;;;;;;15.63;11.88;;;;;;;-145.63;53.41;39364.53;5046841;28;20019;-66
2023/10/22 04:00:28;;;;;;;16.30;11.52;;;;;;;-145.63;53.71;39360.63;5046566;28;20067;-66
2023/10/22 04:02:53;;;;;;;16.23;11.30;;;;;;;-145.63;54.13;39356.72;5046702;28;20033;-66
2023/10/22 04:05:19;;;;;;;14.88;11.00;;;;;;;-145.63;54.13;39362.59;5046882;28;20302;-68
2023/10/22 04:07:45;;;;;;;13.88;10.45;;;;;;;-145.63;53.81;39372.34;5045186;28;20100;-68
2023/10/22 04:10:10;;;;;;;14.50;9.77;;;;;;;-145.63;53.52;39344.97;5046514;28;20033;-68
2023/10/22 04:12:36;;;;;;;11.23;9.95;;;;;;;-145.63;53.57;39362.59;5046239;28;20029;-69
2023/10/22 04:15:03;;;;;;;12.82;9.75;;;;;;;-145.63;53.88;39268.72;5046337;28;20036;-68
2023/10/22 04:17:30;;;;;;;12.35;9.93;;;;;;;-145.63;53.39;39329.34;5046371;28;20187;-67
2023/10/22 04:19:56;;;;;;;12.25;9.27;;;;;;;-145.63;53.22;39323.47;5045718;28;20033;-68
2023/10/22 04:22:22;;;;;;;12.38;8.73;;;;;;;-145.63;53.21;39341.06;5046298;28;20036;-68
2023/10/22 04:24:47;;;;;;;11.85;8.48;;;;;;;-145.63;52.82;39346.94;5046364;28;20261;-69
2023/10/22 04:27:13;;;;;;;12.85;9.07;;;;;;;-145.63;52.85;39344.97;5044928;28;20164;-69
2023/10/22 04:29:39;;;;;;;13.48;8.30;;;;;;;-145.63;52.33;39376.28;5045874;28;20357;-69
2023/10/22 04:32:05;;;;;;;10.30;7.78;;;;;;;-145.63;52.48;39360.63;5046318;28;20029;-69
2023/10/22 04:34:35;;;;;;;14.70;7.85;;;;;;;-145.63;52.28;39411.47;5045998;28;20036;-68
2023/10/22 04:37:01;;;;;;;9.13;7.57;;;;;;;-145.63;52.42;39380.19;5046110;28;20037;-69
2023/10/22 04:39:27;;;;;;;10.13;7.30;;;;;;;-145.63;51.95;39309.78;5044678;28;20044;-66
2023/10/22 04:41:53;;;;;;;12.63;8.13;;;;;;;-145.63;52.14;39374.31;5045859;28;20033;-67
2023/10/22 04:44:19;;;;;;;12.55;8.07;;;;;;;-145.63;51.82;39343.03;5045496;28;20029;-69
2023/10/22 04:46:45;;;;;;;9.60;7.63;;;;;;;-145.63;51.96;39354.75;5045553;28;20021;-69
2023/10/22 04:49:10;;;;;;;9.93;7.97;;;;;;;-145.63;51.77;39364.53;5045500;28;20034;-71
2023/10/22 04:51:39;;;;;;;11.52;8.43;;;;;;;-145.63;52.05;39370.41;5045446;28;20056;-71
2023/10/22 04:54:05;;;;;;;17.13;8.85;;;;;;;-145.63;51.49;39356.72;5046025;28;20080;-69
2023/10/22 04:56:32;;;;;;;13.02;8.05;;;;;;;-145.63;51.73;39327.38;5045621;28;20175;-68
2023/10/22 04:58:57;;;;;;;15.27;8.63;;;;;;;-145.63;51.90;39352.81;5045683;28;20021;-67
2023/10/22 05:01:23;;;;;;;10.35;7.55;;;;;;;-145.63;51.54;39372.34;5045380;28;20090;-68
2023/10/22 05:03:49;;;;;;;12.10;8.20;;;;;;;-145.63;52.17;39341.06;5045293;28;20037;-67
2023/10/22 05:06:14;;;;;;;11.45;8.27;;;;;;;-145.63;51.98;39372.34;5045693;28;20041;-69
2023/10/22 05:08:40;;;;;;;10.07;8.10;;;;;;;-145.63;52.45;39372.34;5045272;28;20025;-69
2023/10/22 05:11:11;;;;;;;11.02;8.27;;;;;;;-145.63;52.67;39362.59;5045235;28;20033;-68
2023/10/22 05:13:37;;;;;;;15.83;8.80;;;;;;;-145.63;52.11;39372.34;5045258;28;20036;-68
2023/10/22 05:16:02;;;;;;;14.05;8.38;;;;;;;-145.63;52.21;39360.63;5044546;28;20030;-68
2023/10/22 05:18:28;;;;;;;11.73;8.85;;;;;;;-145.63;51.64;39356.72;5045302;28;20241;-69
2023/10/22 05:21:01;;;;;;;11.95;8.60;;;;;;;-145.63;51.93;39354.75;5044545;28;20028;-69
2023/10/22 05:23:27;;;;;;;10.13;8.20;;;;;;;-145.63;52.09;39403.66;5045034;28;20352;-69
2023/10/22 05:26:07;;;;;;;12.80;9.40;;;;;;;-145.63;52.07;39264.78;5045042;28;20140;-69
2023/10/22 05:28:32;;;;;;;10.40;7.25;;;;;;;-145.63;52.14;39370.41;5043857;28;20053;-70
2023/10/22 05:30:58;;;;;;;9.52;7.10;;;;;;;-145.63;52.22;39348.88;5045046;28;20143;-67
2023/10/22 05:33:23;;;;;;;12.52;7.82;;;;;;;-145.63;52.45;39343.03;5044909;28;20053;-66
2023/10/22 05:35:49;;;;;;;10.40;7.35;;;;;;;-145.63;52.14;39380.19;5044848;28;20048;-70
2023/10/22 05:38:15;;;;;;;9.60;7.72;;;;;;;-145.63;51.84;39380.19;5044990;28;20028;-70
2023/10/22 05:40:41;;;;;;;13.00;7.55;;;;;;;-145.63;51.66;39358.66;5044798;28;20269;-69
2023/10/22 05:43:06;;;;;;;9.27;7.20;;;;;;;-145.63;51.66;39372.34;5044933;28;20306;-68
2023/10/22 05:45:32;;;;;;;9.60;7.13;;;;;;;-145.63;51.68;39329.34;5044449;28;20037;-68
2023/10/22 05:47:58;;;;;;;12.30;7.47;;;;;;;-145.63;52.07;39382.13;5044630;28;20092;-69
2023/10/22 05:50:25;;;;;;;11.63;7.47;;;;;;;-145.63;52.19;39339.13;5044079;28;20084;-67
2023/10/22 05:52:51;;;;;;;9.60;6.93;;;;;;;-145.63;52.10;39380.19;5044522;28;20045;-68
2023/10/22 05:55:18;;;;;;;9.50;6.65;;;;;;;-145.63;52.08;39380.19;5044567;28;20082;-67
2023/10/22 05:57:45;;;;;;;9.30;6.97;;;;;;;-145.63;51.49;39380.19;5044643;28;20141;-68
2023/10/22 06:00:12;;;;;;;10.20;7.00;;;;;;;-145.63;52.13;39368.44;5044421;28;20029;-68
2023/10/22 06:02:38;;;;;;;8.48;6.70;;;;;;;-145.63;51.84;39376.28;5043800;28;20017;-69
2023/10/22 06:05:04;;;;;;;9.65;7.35;;;;;;;-145.63;51.96;39356.72;5044087;28;20067;-69
2023/10/22 06:07:30;;;;;;;10.35;6.60;;;;;;;-145.63;52.06;39348.88;5044287;28;20352;-68
2023/10/22 06:09:56;;;;;;;9.65;7.65;;;;;;;-145.63;52.22;39323.47;5044227;28;20030;-69
2023/10/22 06:12:21;;;;;;;11.07;6.97;;;;;;;-145.63;51.66;39358.66;5044242;28;20037;-69
2023/10/22 06:14:47;;;;;;;11.80;7.38;;;;;;;-145.63;51.83;39339.13;5041404;28;20018;-69
2023/10/22 06:17:13;;;;;;;9.93;7.30;;;;;;;-145.63;51.95;39325.41;5034522;28;20052;-69
2023/10/22 06:19:39;;;;;;;9.88;7.32;;;;;;;-145.63;51.85;39368.44;5042640;28;20018;-68
2023/10/22 06:22:04;;;;;;;11.50;7.35;;;;;;;-145.63;51.83;39364.53;5043928;28;20100;-69
2023/10/22 06:24:30;;;;;;;9.90;7.85;;;;;;;-145.63;51.87;39352.81;5043504;28;20037;-69
2023/10/22 06:26:55;;;;;;;12.65;7.32;;;;;;;-145.63;51.95;39360.63;5042435;28;20038;-69
2023/10/22 06:29:21;;;;;;;11.55;7.45;;;;;;;-145.63;51.83;39362.59;5042837;28;20029;-69
2023/10/22 06:31:47;;;;;;;10.05;7.20;;;;;;;-145.63;51.96;39380.19;5043291;28;20316;-69
2023/10/22 06:34:13;;;;;;;9.75;7.70;;;;;;;-145.63;52.31;39372.34;5043484;28;20032;-69
2023/10/22 06:36:38;;;;;;;8.65;6.95;;;;;;;-145.63;52.00;39344.97;5043317;28;20079;-68
2023/10/22 06:39:04;;;;;;;10.23;6.97;;;;;;;-145.63;52.17;39337.16;5043131;28;20079;-68
2023/10/22 06:41:30;;;;;;;10.38;7.63;;;;;;;-145.63;52.22;39346.94;5042946;28;20372;-68
2023/10/22 06:43:55;;;;;;;9.43;6.85;;;;;;;-145.63;52.63;39350.84;5043229;28;20170;-69
2023/10/22 06:46:21;;;;;;;12.20;7.93;;;;;;;-145.63;52.50;39350.84;5043102;28;20063;-67
2023/10/22 06:48:48;;;;;;;11.75;8.13;;;;;;;-145.63;52.55;39350.84;5043008;28;20017;-70
2023/10/22 06:51:18;;;;;;;14.13;8.40;;;;;;;-145.63;52.34;39374.31;5041827;28;20029;-70
2023/10/22 06:53:46;;;;;;;11.77;7.88;;;;;;;-145.63;51.84;39343.03;5043237;28;20360;-69
2023/10/22 06:56:12;;;;;;;10.02;8.00;;;;;;;-145.63;52.29;39366.50;5043090;28;20037;-69
2023/10/22 06:58:40;;;;;;;11.63;8.15;;;;;;;-145.63;52.54;39343.03;5043279;28;20033;-71
2023/10/22 07:01:09;;;;;;;10.50;8.10;;;;;;;-145.63;52.79;39331.28;5039772;28;20029;-69
2023/10/22 07:03:42;;;;;;;12.85;8.13;;;;;;;-145.63;52.68;39374.31;5041646;28;20101;-70
2023/10/22 07:06:08;;;;;;;11.98;8.07;;;;;;;-145.63;52.40;39378.22;5042264;28;20067;-69
2023/10/22 07:08:33;;;;;;;11.10;8.38;;;;;;;-145.63;52.52;39366.50;5042473;28;20017;-68
2023/10/22 07:10:59;;;;;;;12.25;8.50;;;;;;;-145.63;52.69;39417.34;5042141;28;20096;-70
2023/10/22 07:13:25;;;;;;;10.40;9.02;;;;;;;-145.63;53.24;39350.84;5042468;28;20036;-69
2023/10/22 07:15:52;;;;;;;12.75;9.80;;;;;;;-145.63;53.54;39305.88;5042733;28;20033;-69
2023/10/22 07:18:18;;;;;;;13.27;9.45;;;;;;;-145.63;53.58;39350.84;5040520;28;20056;-70
2023/10/22 07:20:44;;;;;;;12.43;9.10;;;;;;;-145.63;54.18;39348.88;5041268;28;20048;-68
2023/10/22 07:23:10;;;;;;;14.00;10.30;;;;;;;-145.63;54.18;39313.69;5042509;28;20349;-68
2023/10/22 07:25:36;;;;;;;16.98;11.40;;;;;;;-145.63;54.53;39286.31;5042663;28;20310;-68
2023/10/22 07:28:02;;;;;;;12.60;10.32;;;;;;;-145.63;54.39;39360.63;5042589;28;20030;-68
2023/10/22 07:30:29;;;;;;;13.75;10.75;;;;;;;-145.63;54.07;39323.47;5042710;28;20021;-69
2023/10/22 07:32:55;;;;;;;14.50;11.18;;;;;;;-145.63;54.21;39323.47;5038589;28;20045;-68
2023/10/22 07:35:22;;;;;;;15.50;13.00;;;;;;;-145.63;54.05;39301.94;5043306;28;20324;-69
2023/10/22 07:37:47;;;;;;;19.10;13.98;;;;;;;-145.63;54.25;39315.66;5042563;28;20050;-70
2023/10/22 07:40:14;;;;;;;20.23;15.27;;;;;;;-145.63;54.50;39315.66;5042589;28;20021;-69
2023/10/22 07:42:45;;;;;;;22.98;15.80;;;;;;;-145.63;54.19;39311.72;5042623;28;20036;-69
2023/10/22 07:45:11;;;;;;;24.20;17.33;;;;;;;-145.63;53.69;39352.81;5041348;28;20033;-68
2023/10/22 07:47:38;;;;;;;27.17;19.92;;;;;;;-145.63;53.54;39339.13;5042490;28;20029;-68
2023/10/22 07:50:05;;;;;;;26.35;20.25;;;;;;;-145.63;53.48;39376.28;5041260;28;20025;-67
2023/10/22 07:52:32;;;;;;;25.45;20.55;;;;;;;-145.63;53.90;39354.75;5042271;28;20061;-69
2023/10/22 07:54:58;;;;;;;28.98;21.10;;;;;;;-145.63;53.91;39341.06;5042560;28;20064;-67
2023/10/22 07:57:28;;;;;;;27.73;20.05;;;;;;;-145.63;54.86;39341.06;5040901;28;20314;-70
2023/10/22 07:59:55;;;;;;;27.38;20.90;;;;;;;-145.63;54.30;39352.81;5042161;28;20037;-69
2023/10/22 08:02:21;;;;;;;26.42;20.75;;;;;;;-145.63;54.49;39386.06;5041109;28;20033;-69
2023/10/22 08:04:47;;;;;;;27.48;21.33;;;;;;;-145.63;53.88;39380.19;5041956;28;20205;-68
2023/10/22 08:07:13;;;;;;;36.10;27.98;;;;;;;-145.63;53.85;39370.41;5042233;28;20075;-68
2023/10/22 08:09:38;;;;;;;26.15;20.15;;;;;;;-145.63;53.76;39329.34;5042020;28;20033;-69
2023/10/22 08:12:04;;;;;;;29.38;21.10;;;;;;;-145.63;53.12;39325.41;5041065;28;20095;-70
2023/10/22 08:14:30;;;;;;;27.63;20.55;;;;;;;-145.63;53.48;39317.59;5041103;28;20037;-69
2023/10/22 08:16:57;;;;;;;26.65;19.52;;;;;;;-145.63;53.61;39335.19;5042015;28;20033;-68
2023/10/22 08:19:23;;;;;;;26.42;18.92;;;;;;;-145.63;53.99;39362.59;5041550;28;20013;-68
2023/10/22 08:21:48;;;;;;;22.98;17.90;;;;;;;-145.63;53.59;39348.88;5041933;28;20075;-67
2023/10/22 08:24:14;;;;;;;19.00;15.90;;;;;;;-145.63;54.53;39311.72;5041957;28;20021;-70
2023/10/22 08:26:39;;;;;;;16.55;13.73;;;;;;;-145.63;53.47;39307.81;5042141;28;20044;-71
2023/10/22 08:29:05;;;;;;;15.45;11.77;;;;;;;-145.63;54.20;39292.19;5045690;28;20024;-72
2023/10/22 08:31:31;;;;;;;16.95;12.90;;;;;;;-145.63;54.08;39364.53;5045656;28;20033;-69
2023/10/22 08:33:56;;;;;;;15.05;11.93;;;;;;;-145.63;53.65;39346.94;5045426;28;20029;-69
2023/10/22 08:36:22;;;;;;;18.55;13.57;;;;;;;-145.63;53.74;39335.19;5044376;28;20309;-69
2023/10/22 08:38:47;;;;;;;15.80;13.30;;;;;;;-145.63;53.25;39290.22;5045371;28;20259;-70
2023/10/22 08:41:21;;;;;;;18.17;14.18;;;;;;;-145.63;52.76;39364.53;5045117;28;20075;-72
2023/10/22 08:43:48;;;;;;;18.95;14.27;;;;;;;-145.63;52.72;39325.41;5043117;28;20033;-73
2023/10/22 08:46:14;;;;;;;19.58;14.90;;;;;;;-145.63;52.96;39327.38;5045618;28;20040;-72
2023/10/22 08:48:40;;;;;;;18.88;14.80;;;;;;;-145.63;52.38;39303.91;5045206;28;20025;-72
2023/10/22 08:51:08;;;;;;;17.13;14.52;;;;;;;-145.63;51.81;39356.72;5045681;28;20025;-70
2023/10/22 08:53:34;;;;;;;18.02;14.60;;;;;;;-145.63;52.05;39317.59;5045039;28;20037;-70
2023/10/22 08:56:01;;;;;;;20.92;16.33;;;;;;;-145.63;52.07;39321.50;5045097;28;20072;-71
2023/10/22 08:58:27;;;;;;;18.25;14.07;;;;;;;-145.63;52.24;39350.84;5043469;28;20064;-73
2023/10/22 09:00:53;;;;;;;19.77;13.70;;;;;;;-145.63;52.06;39356.72;5044205;28;20045;-73
2023/10/22 09:03:20;;;;;;;17.25;14.18;;;;;;;-145.63;52.63;39360.63;5044434;28;20025;-69
2023/10/22 09:05:47;;;;;;;18.58;13.93;;;;;;;-145.63;52.75;39370.41;5042324;28;20096;-73
2023/10/22 09:08:14;;;;;;;17.10;13.90;;;;;;;-145.63;52.27;38949.94;5044353;28;20034;-69
2023/10/22 09:10:41;;;;;;;19.42;14.05;;;;;;;-145.63;52.29;39348.88;5044957;28;20206;-69
2023/10/22 09:13:06;;;;;;;19.48;14.65;;;;;;;-145.63;52.17;39319.56;5042435;28;20029;-70
2023/10/22 09:15:40;;;;;;;17.42;15.25;;;;;;;-145.63;52.55;39321.50;5044426;28;20048;-73
2023/10/22 09:18:06;;;;;;;18.60;15.50;;;;;;;-145.63;51.89;39321.50;5044667;28;20021;-69
2023/10/22 09:20:34;;;;;;;16.73;15.00;;;;;;;-145.63;51.87;39305.88;5044241;28;20017;-69
2023/10/22 09:23:19;;;;;;;19.30;15.35;;;;;;;-145.63;51.54;39311.72;5044847;28;20317;-68
2023/10/22 09:25:54;;;;;;;20.55;16.00;;;;;;;-145.63;51.95;39352.81;5044307;28;20037;-72
2023/10/22 09:28:21;;;;;;;19.17;17.10;;;;;;;-145.63;51.62;39366.50;5044598;28;20029;-69
2023/10/22 09:30:53;;;;;;;18.05;15.73;;;;;;;-145.63;51.84;39337.16;5043976;28;20052;-69
2023/10/22 09:33:29;;;;;;;19.70;15.10;;;;;;;-145.63;52.06;39298.03;5041720;28;20272;-71
2023/10/22 09:36:01;;;;;;;18.20;16.08;;;;;;;-145.63;52.38;39360.63;5044416;28;20100;-69
2023/10/22 09:38:42;;;;;;;21.95;16.40;;;;;;;-145.63;52.14;39346.94;5043699;28;20363;-68
2023/10/22 09:41:11;;;;;;;19.65;17.35;;;;;;;-145.63;51.53;39335.19;5044834;28;20037;-69
2023/10/22 09:43:37;;;;;;;19.30;15.98;;;;;;;-145.63;51.17;39300.00;5044360;28;20028;-68
2023/10/22 09:46:06;;;;;;;19.70;15.38;;;;;;;-145.63;51.69;39325.41;5044809;28;20301;-69
2023/10/22 09:48:34;;;;;;;18.35;15.75;;;;;;;-145.63;51.26;39337.16;5044580;28;20021;-68
2023/10/22 09:51:03;;;;;;;18.98;15.48;;;;;;;-145.63;51.63;39388.00;5041309;28;20029;-69
2023/10/22 09:53:36;;;;;;;17.92;14.68;;;;;;;-145.63;51.17;39317.59;5042416;28;20060;-72
2023/10/22 09:56:06;;;;;;;18.25;14.90;;;;;;;-145.63;51.93;39337.16;5044247;28;20159;-69
2023/10/22 09:58:38;;;;;;;15.43;13.82;;;;;;;-145.63;51.48;39384.09;5041827;28;20025;-70
2023/10/22 10:01:04;;;;;;;16.30;14.30;;;;;;;-145.63;51.62;39360.63;5044077;28;20088;-69
2023/10/22 10:03:32;;;;;;;17.63;14.88;;;;;;;-145.63;51.41;39313.69;5043806;28;20323;-69
2023/10/22 10:05:57;;;;;;;18.02;15.13;;;;;;;-145.63;51.49;39323.47;5044007;28;20028;-69
2023/10/22 10:08:25;;;;;;;18.70;14.00;;;;;;;-145.63;52.04;39323.47;5044024;28;20069;-73
2023/10/22 10:10:51;;;;;;;20.15;16.58;;;;;;;-145.63;51.34;39315.66;5044011;28;20021;-72
2023/10/22 10:13:17;;;;;;;19.77;16.05;;;;;;;-145.63;51.66;39331.28;5044185;28;20029;-75
2023/10/22 10:15:43;;;;;;;17.25;15.38;;;;;;;-145.63;51.85;39333.25;5042524;28;20021;-74
2023/10/22 10:18:09;;;;;;;22.17;17.38;;;;;;;-145.63;51.64;39364.53;5042149;28;20072;-73
2023/10/22 10:20:39;;;;;;;17.90;15.15;;;;;;;-145.63;52.13;39384.09;5042824;28;20048;-73
2023/10/22 10:23:11;;;;;;;18.92;16.88;;;;;;;-145.63;52.24;39362.59;5041988;28;20055;-71
2023/10/22 10:25:39;;;;;;;20.95;16.38;;;;;;;-145.63;52.21;39360.63;5043380;28;20037;-73
2023/10/22 10:28:09;;;;;;;27.02;20.17;;;;;;;-145.63;51.69;39356.72;5043520;28;20093;-72
2023/10/22 10:30:35;;;;;;;22.83;18.25;;;;;;;-145.63;52.17;39384.09;5041637;28;20021;-75
2023/10/22 10:33:02;;;;;;;22.67;17.50;;;;;;;-145.63;51.87;39470.16;5041371;28;20089;-73
2023/10/22 10:35:28;;;;;;;21.00;17.55;;;;;;;-145.63;51.40;39378.22;5041958;28;20028;-75
2023/10/22 10:38:16;;;;;;;20.08;17.65;;;;;;;-145.63;52.24;39395.84;5043643;28;20040;-73
2023/10/22 10:40:46;;;;;;;22.38;18.63;;;;;;;-145.63;51.39;39388.00;5040422;28;20037;-75
2023/10/22 10:43:13;;;;;;;21.55;18.65;;;;;;;-145.63;51.01;39384.09;5042202;28;20029;-72
2023/10/22 10:45:43;;;;;;;24.02;18.83;;;;;;;-145.63;52.24;39368.44;5042240;28;20105;-73
2023/10/22 10:48:42;;;;;;;27.58;20.13;;;;;;;-145.63;52.20;39378.22;5042811;28;20021;-74
2023/10/22 10:51:21;;;;;;;21.00;17.90;;;;;;;-145.63;51.52;39393.88;5010545;28;20065;-77
2023/10/22 10:54:04;;;;;;;20.50;18.40;;;;;;;-145.63;51.94;39388.00;5043573;28;20287;-74
2023/10/22 10:56:53;;;;;;;25.50;19.35;;;;;;;-145.63;51.62;39356.72;5041062;28;20079;-71
2023/10/22 10:59:31;;;;;;;28.05;22.10;;;;;;;-145.63;51.54;39333.25;5042417;28;20024;-75
2023/10/22 11:02:07;;;;;;;21.63;17.33;;;;;;;-145.63;51.46;39337.16;5042760;28;20100;-74
2023/10/22 11:04:38;;;;;;;22.00;17.92;;;;;;;-145.63;51.60;39401.69;5040985;28;20048;-73